Time;durP1;ratioP1;P1;durP2;ratioP2;P2;SDS_P1;SDS_P2;PMS_P1;PMS_P2;Temp;Humidity;BMP_temperature;BMP_pressure;BME280_temperature;BME280_humidity;BME280_pressure;Samples;Min_cycle;Max_cycle;Signal;HPM_P1;HPM_P2
2023/10/27 00:00:58;;;;;;;2.47;1.90;;;9.30;99.90;;;;;;5055521;28;20446;-62
2023/10/27 00:03:23;;;;;;;2.70;1.60;;;9.30;99.90;;;;;;5052776;28;20764;-60
2023/10/27 00:05:49;;;;;;;2.03;1.60;;;9.30;99.90;;;;;;5053936;28;20214;-59
2023/10/27 00:08:15;;;;;;;4.60;2.13;;;9.30;99.90;;;;;;5056327;28;20248;-60
2023/10/27 00:10:40;;;;;;;2.07;1.53;;;9.30;99.90;;;;;;5054009;28;20206;-60
2023/10/27 00:13:06;;;;;;;3.10;1.70;;;9.30;99.90;;;;;;5056928;28;20185;-59
2023/10/27 00:15:32;;;;;;;2.07;1.50;;;9.30;99.90;;;;;;5055320;28;20215;-60
2023/10/27 00:17:58;;;;;;;9.30;1.60;;;9.20;99.90;;;;;;5057189;28;20297;-63
2023/10/27 00:20:26;;;;;;;1.63;1.30;;;9.20;99.90;;;;;;5055914;28;20190;-61
2023/10/27 00:22:52;;;;;;;2.10;1.30;;;9.20;99.90;;;;;;5055564;28;20424;-62
2023/10/27 00:25:18;;;;;;;3.53;1.40;;;9.20;99.90;;;;;;5054226;28;21299;-61
2023/10/27 00:27:43;;;;;;;4.90;1.30;;;9.20;99.90;;;;;;5059948;28;20277;-61
2023/10/27 00:30:09;;;;;;;5.17;1.60;;;9.20;99.90;;;;;;5060986;28;20210;-61
2023/10/27 00:32:36;;;;;;;3.20;1.67;;;9.10;99.90;;;;;;5056776;28;20170;-61
2023/10/27 00:35:04;;;;;;;1.70;1.30;;;9.10;99.90;;;;;;5059063;28;20813;-60
2023/10/27 00:37:33;;;;;;;2.50;1.30;;;9.10;99.90;;;;;;5060004;28;20424;-61
2023/10/27 00:39:59;;;;;;;5.80;1.40;;;9.10;99.90;;;;;;5064790;28;20450;-62
2023/10/27 00:42:24;;;;;;;2.60;1.30;;;9.10;99.90;;;;;;5067474;28;20424;-63
2023/10/27 00:44:50;;;;;;;1.80;1.20;;;9.10;99.90;;;;;;5068927;28;20166;-61
2023/10/27 00:47:15;;;;;;;2.03;1.40;;;9.10;99.90;;;;;;5065973;28;20182;-61
2023/10/27 00:49:42;;;;;;;1.67;1.57;;;9.10;99.90;;;;;;5067166;28;20215;-61
2023/10/27 00:52:07;;;;;;;4.73;1.40;;;9.10;99.90;;;;;;5066842;28;20646;-61
2023/10/27 00:54:34;;;;;;;1.50;1.30;;;9.10;99.90;;;;;;5067025;28;21208;-61
2023/10/27 00:57:00;;;;;;;1.63;1.17;;;9.10;99.90;;;;;;5068734;28;20564;-62
2023/10/27 00:59:26;;;;;;;1.47;1.37;;;9.10;99.90;;;;;;5060720;28;20432;-61
2023/10/27 01:01:52;;;;;;;2.30;1.30;;;9.10;99.90;;;;;;5059132;28;20503;-59
2023/10/27 01:04:18;;;;;;;3.53;1.30;;;9.10;99.90;;;;;;5058687;28;20184;-61
2023/10/27 01:06:44;;;;;;;3.30;1.30;;;9.10;99.90;;;;;;5054868;28;20273;-62
2023/10/27 01:09:09;;;;;;;4.40;1.40;;;9.10;99.90;;;;;;5058732;28;20540;-60
2023/10/27 01:11:36;;;;;;;2.03;1.30;;;9.10;99.90;;;;;;5055880;28;20236;-61
2023/10/27 01:14:01;;;;;;;3.00;1.50;;;9.10;99.90;;;;;;5057603;28;20171;-59
2023/10/27 01:16:27;;;;;;;1.63;1.20;;;9.10;99.90;;;;;;5058086;28;21189;-60
2023/10/27 01:18:53;;;;;;;2.13;1.33;;;9.10;99.90;;;;;;5059241;28;20269;-60
2023/10/27 01:21:18;;;;;;;2.83;1.20;;;9.10;99.90;;;;;;5057063;28;20203;-61
2023/10/27 01:23:44;;;;;;;2.27;1.20;;;9.10;99.90;;;;;;5061260;28;21138;-60
2023/10/27 01:26:09;;;;;;;2.63;1.60;;;9.10;99.90;;;;;;5057935;28;20183;-61
2023/10/27 01:28:35;;;;;;;4.20;1.87;;;9.00;99.90;;;;;;5057588;28;20596;-60
2023/10/27 01:31:01;;;;;;;5.27;1.40;;;9.00;99.90;;;;;;5055931;28;20397;-61
2023/10/27 01:33:26;;;;;;;2.30;2.10;;;9.00;99.90;;;;;;5056060;28;20179;-60
2023/10/27 01:35:52;;;;;;;3.87;2.03;;;9.00;99.90;;;;;;5057563;28;20170;-61
2023/10/27 01:38:18;;;;;;;2.80;1.70;;;9.00;99.90;;;;;;5055519;28;20209;-61
2023/10/27 01:40:43;;;;;;;2.03;1.47;;;9.00;99.90;;;;;;5057968;28;20684;-60
2023/10/27 01:43:09;;;;;;;3.07;1.50;;;9.10;99.90;;;;;;5051396;28;20239;-60
2023/10/27 01:45:35;;;;;;;2.13;1.20;;;9.10;99.90;;;;;;5050798;28;20612;-60
2023/10/27 01:48:00;;;;;;;4.00;1.57;;;9.10;99.90;;;;;;5057449;28;20196;-61
2023/10/27 01:50:26;;;;;;;2.20;1.30;;;9.10;99.90;;;;;;5056119;28;20218;-59
2023/10/27 01:52:52;;;;;;;3.10;1.70;;;9.10;99.90;;;;;;5059458;28;20201;-60
2023/10/27 01:55:17;;;;;;;2.27;1.67;;;9.10;99.90;;;;;;5058324;28;20171;-60
2023/10/27 01:57:43;;;;;;;2.50;1.50;;;9.10;99.90;;;;;;5057145;28;20170;-60
2023/10/27 02:00:10;;;;;;;2.83;1.70;;;9.10;99.90;;;;;;5057819;28;20201;-61
2023/10/27 02:02:36;;;;;;;3.00;1.77;;;9.10;99.90;;;;;;5056890;28;20567;-60
2023/10/27 02:05:03;;;;;;;1.43;1.33;;;9.10;99.90;;;;;;5054882;28;20429;-59
2023/10/27 02:07:28;;;;;;;1.97;1.30;;;9.10;99.90;;;;;;5057356;28;20424;-60
2023/10/27 02:09:58;;;;;;;1.90;1.70;;;9.10;99.90;;;;;;5056645;28;20959;-59
2023/10/27 02:12:24;;;;;;;2.60;1.63;;;9.10;99.90;;;;;;5059122;28;20206;-62
2023/10/27 02:14:49;;;;;;;1.50;1.40;;;9.10;99.90;;;;;;5059928;28;20460;-59
2023/10/27 02:17:15;;;;;;;2.50;1.40;;;9.20;99.90;;;;;;5059576;28;20174;-60
2023/10/27 02:19:40;;;;;;;1.90;1.80;;;9.20;99.90;;;;;;5060049;28;20242;-62
2023/10/27 02:22:06;;;;;;;1.70;1.50;;;9.20;99.90;;;;;;5055774;28;20203;-60
2023/10/27 02:24:32;;;;;;;3.47;2.00;;;9.20;99.90;;;;;;5053661;28;20219;-59
2023/10/27 02:26:58;;;;;;;2.07;1.70;;;9.10;99.90;;;;;;5056456;28;20181;-60
2023/10/27 02:29:24;;;;;;;3.70;2.07;;;9.10;99.90;;;;;;5058510;28;20178;-60
2023/10/27 02:31:50;;;;;;;5.53;1.90;;;9.20;99.90;;;;;;5059037;28;20477;-60
2023/10/27 02:34:15;;;;;;;2.80;2.00;;;9.20;99.90;;;;;;5061497;28;20801;-59
2023/10/27 02:36:41;;;;;;;6.67;2.00;;;9.20;99.90;;;;;;5058724;28;20170;-61
2023/10/27 02:39:06;;;;;;;4.83;2.03;;;9.20;99.90;;;;;;5063460;28;20198;-60
2023/10/27 02:41:32;;;;;;;2.17;1.97;;;9.20;99.90;;;;;;5058243;28;20224;-59
2023/10/27 02:43:58;;;;;;;2.47;1.60;;;9.20;99.90;;;;;;5061075;28;20202;-59
2023/10/27 02:46:24;;;;;;;2.27;1.80;;;9.20;99.90;;;;;;5058992;28;20174;-59
2023/10/27 02:48:50;;;;;;;4.40;1.90;;;9.20;99.90;;;;;;5060861;28;20412;-60
2023/10/27 02:51:17;;;;;;;1.97;1.60;;;9.20;99.90;;;;;;5067547;28;20202;-59
2023/10/27 02:53:42;;;;;;;5.10;2.30;;;9.20;99.90;;;;;;5059963;28;20522;-58
2023/10/27 02:56:09;;;;;;;2.50;1.93;;;9.20;99.90;;;;;;5060141;28;20436;-60
2023/10/27 02:58:35;;;;;;;5.47;2.30;;;9.20;99.90;;;;;;5060012;28;20169;-60
2023/10/27 03:01:09;;;;;;;3.40;2.10;;;9.20;99.90;;;;;;5058263;28;20479;-61
2023/10/27 03:03:36;;;;;;;2.53;1.80;;;9.30;99.90;;;;;;5059724;28;20787;-60
2023/10/27 03:06:02;;;;;;;4.00;2.10;;;9.30;99.90;;;;;;5059570;28;20425;-59
2023/10/27 03:08:28;;;;;;;2.63;2.10;;;9.30;99.90;;;;;;5058688;28;20428;-60
2023/10/27 03:10:53;;;;;;;3.13;2.00;;;9.20;99.90;;;;;;5058994;28;20456;-60
2023/10/27 03:13:19;;;;;;;2.60;2.17;;;9.20;99.90;;;;;;5059341;28;20243;-61
2023/10/27 03:15:46;;;;;;;4.93;2.43;;;9.20;99.90;;;;;;5059237;28;20201;-60
2023/10/27 03:18:12;;;;;;;2.87;1.60;;;9.30;99.90;;;;;;5063706;28;20448;-60
2023/10/27 03:20:38;;;;;;;2.10;1.83;;;9.30;99.90;;;;;;5065219;28;20444;-61
2023/10/27 03:23:03;;;;;;;2.20;2.00;;;9.30;99.90;;;;;;5061838;28;20209;-59
2023/10/27 03:25:29;;;;;;;3.77;2.27;;;9.30;99.90;;;;;;5056070;28;20197;-60
2023/10/27 03:27:55;;;;;;;2.40;1.83;;;9.30;99.90;;;;;;5057410;28;20296;-61
2023/10/27 03:30:21;;;;;;;2.67;2.13;;;9.20;99.90;;;;;;5059036;28;20202;-60
2023/10/27 03:32:47;;;;;;;4.10;1.70;;;9.30;99.90;;;;;;5058142;28;20209;-59
2023/10/27 03:35:14;;;;;;;3.13;1.93;;;9.30;99.90;;;;;;5052484;28;20432;-61
2023/10/27 03:37:39;;;;;;;3.90;2.43;;;9.30;99.90;;;;;;5058671;28;21436;-60
2023/10/27 03:40:06;;;;;;;3.17;2.00;;;9.30;99.90;;;;;;5058222;28;21222;-60
2023/10/27 03:42:31;;;;;;;7.47;1.67;;;9.20;99.90;;;;;;5058183;28;20178;-61
2023/10/27 03:44:57;;;;;;;7.03;1.80;;;9.20;99.90;;;;;;5054249;28;20433;-60
2023/10/27 03:47:22;;;;;;;2.27;1.77;;;9.20;99.90;;;;;;5053447;28;20186;-60
2023/10/27 03:49:48;;;;;;;3.00;1.90;;;9.20;99.90;;;;;;5055587;28;20182;-61
2023/10/27 03:52:14;;;;;;;3.00;2.03;;;9.20;99.90;;;;;;5057071;28;20234;-60
2023/10/27 03:54:39;;;;;;;2.70;1.57;;;9.20;99.90;;;;;;5054782;28;20229;-60
2023/10/27 03:57:06;;;;;;;3.00;1.60;;;9.20;99.90;;;;;;5058154;28;20614;-54
2023/10/27 03:59:31;;;;;;;3.00;1.50;;;9.20;99.90;;;;;;5061873;28;20258;-53
2023/10/27 04:01:57;;;;;;;1.90;1.43;;;9.20;99.90;;;;;;5060191;28;20523;-54
2023/10/27 04:04:23;;;;;;;2.60;1.80;;;9.30;99.90;;;;;;5057750;28;20674;-56
2023/10/27 04:06:48;;;;;;;3.07;2.37;;;9.30;99.90;;;;;;5057982;28;20178;-55
2023/10/27 04:09:14;;;;;;;4.37;2.60;;;9.30;99.90;;;;;;5061329;28;20174;-58
2023/10/27 04:11:40;;;;;;;1.60;1.50;;;9.30;99.90;;;;;;5059847;28;20291;-55
2023/10/27 04:14:05;;;;;;;1.73;1.63;;;9.30;99.90;;;;;;5054654;28;20279;-59
2023/10/27 04:16:31;;;;;;;2.63;1.70;;;9.30;99.90;;;;;;5058087;28;20770;-61
2023/10/27 04:18:57;;;;;;;3.53;2.40;;;9.40;99.90;;;;;;5060032;28;20213;-63
2023/10/27 04:21:23;;;;;;;2.83;2.17;;;9.40;99.90;;;;;;5065154;28;20209;-63
2023/10/27 04:23:49;;;;;;;5.40;2.80;;;9.40;99.90;;;;;;5065713;28;20448;-62
2023/10/27 04:26:15;;;;;;;3.00;2.27;;;9.40;99.90;;;;;;5065379;28;20814;-62
2023/10/27 04:28:42;;;;;;;3.10;2.40;;;9.40;99.90;;;;;;5063477;28;20179;-63
2023/10/27 04:31:08;;;;;;;2.20;2.10;;;9.40;99.90;;;;;;5070490;28;20524;-61
2023/10/27 04:33:37;;;;;;;4.97;2.80;;;9.40;99.90;;;;;;5063048;28;20440;-61
2023/10/27 04:36:04;;;;;;;4.43;2.43;;;9.50;99.90;;;;;;5068557;28;20525;-61
2023/10/27 04:38:29;;;;;;;4.60;2.33;;;9.50;99.90;;;;;;5068361;28;20424;-61
2023/10/27 04:40:55;;;;;;;2.40;1.97;;;9.50;99.90;;;;;;5065162;28;20448;-62
2023/10/27 04:43:21;;;;;;;2.47;2.10;;;9.50;99.90;;;;;;5057224;28;20927;-60
2023/10/27 04:45:47;;;;;;;2.73;2.00;;;9.50;99.90;;;;;;5061426;28;20514;-60
2023/10/27 04:48:13;;;;;;;3.10;2.10;;;9.50;99.90;;;;;;5067595;28;20189;-61
2023/10/27 04:50:38;;;;;;;2.83;2.40;;;9.50;99.90;;;;;;5068038;28;20456;-60
2023/10/27 04:53:04;;;;;;;3.00;2.70;;;9.50;99.90;;;;;;5063793;28;20173;-61
2023/10/27 04:55:30;;;;;;;3.00;2.70;;;9.50;99.90;;;;;;5063958;28;20177;-61
2023/10/27 04:57:55;;;;;;;4.10;2.80;;;9.50;99.90;;;;;;5067168;28;20171;-61
2023/10/27 05:00:21;;;;;;;2.50;2.30;;;9.50;99.90;;;;;;5063655;28;20222;-61
2023/10/27 05:02:46;;;;;;;2.93;2.50;;;9.50;99.90;;;;;;5067555;28;20183;-61
2023/10/27 05:05:12;;;;;;;3.57;3.07;;;9.50;99.90;;;;;;5064409;28;20457;-62
2023/10/27 05:07:38;;;;;;;3.30;2.77;;;9.50;99.90;;;;;;5067156;28;20649;-60
2023/10/27 05:10:07;;;;;;;2.80;2.60;;;9.50;99.90;;;;;;5062712;28;20179;-60
2023/10/27 05:12:34;;;;;;;2.60;2.40;;;9.60;99.90;;;;;;5066699;28;20198;-60
2023/10/27 05:15:00;;;;;;;2.83;2.53;;;9.60;99.90;;;;;;5061178;28;20948;-61
2023/10/27 05:17:25;;;;;;;2.80;2.60;;;9.60;99.90;;;;;;5066378;28;20440;-61
2023/10/27 05:19:51;;;;;;;3.93;3.40;;;9.60;99.90;;;;;;5063094;28;20174;-60
2023/10/27 05:22:18;;;;;;;2.57;2.10;;;9.60;99.90;;;;;;5065113;28;20228;-63
2023/10/27 05:24:44;;;;;;;1.93;1.80;;;9.60;99.90;;;;;;5061797;28;20174;-61
2023/10/27 05:27:09;;;;;;;1.97;1.80;;;9.60;99.90;;;;;;5064702;28;20429;-61
2023/10/27 05:29:35;;;;;;;2.30;2.10;;;9.60;99.90;;;;;;5063668;28;20166;-61
2023/10/27 05:32:00;;;;;;;2.23;1.90;;;9.60;99.90;;;;;;5065859;28;20229;-60
2023/10/27 05:34:26;;;;;;;2.07;1.87;;;9.60;99.90;;;;;;5066789;28;20175;-61
2023/10/27 05:36:52;;;;;;;1.40;1.30;;;9.60;99.90;;;;;;5059530;28;20174;-61
2023/10/27 05:39:17;;;;;;;1.50;1.40;;;9.60;99.90;;;;;;5069502;28;20261;-60
2023/10/27 05:41:45;;;;;;;1.30;1.20;;;9.60;99.90;;;;;;5063159;28;20207;-62
2023/10/27 05:44:11;;;;;;;1.20;1.10;;;9.60;99.90;;;;;;5063949;28;20178;-61
2023/10/27 05:46:37;;;;;;;1.10;1.00;;;9.60;99.90;;;;;;5064809;28;20433;-61
2023/10/27 05:49:04;;;;;;;1.70;1.60;;;9.60;99.90;;;;;;5067140;28;20543;-62
2023/10/27 05:51:30;;;;;;;0.80;0.80;;;9.60;99.90;;;;;;5062379;28;21636;-61
2023/10/27 05:53:56;;;;;;;1.10;1.00;;;9.60;99.90;;;;;;5063936;28;20432;-59
2023/10/27 05:56:22;;;;;;;1.83;1.30;;;9.60;99.90;;;;;;5067708;28;20428;-61
2023/10/27 05:58:47;;;;;;;5.90;2.00;;;9.60;99.90;;;;;;5067479;28;20889;-61
2023/10/27 06:01:13;;;;;;;1.10;1.00;;;9.60;99.90;;;;;;5063717;28;20203;-60
2023/10/27 06:03:38;;;;;;;0.90;0.80;;;9.60;99.90;;;;;;5063250;28;20182;-59
2023/10/27 06:06:04;;;;;;;0.70;0.70;;;9.60;99.90;;;;;;5064034;28;20733;-60
2023/10/27 06:08:30;;;;;;;0.70;0.70;;;9.60;99.90;;;;;;5061415;28;20170;-62
2023/10/27 06:10:55;;;;;;;0.93;0.70;;;9.60;99.90;;;;;;5066871;28;20203;-58
2023/10/27 06:13:21;;;;;;;0.90;0.80;;;9.60;99.90;;;;;;5063533;28;20596;-59
2023/10/27 06:15:46;;;;;;;0.90;0.90;;;9.60;99.90;;;;;;5061223;28;20186;-58
2023/10/27 06:18:14;;;;;;;0.83;0.83;;;9.70;99.90;;;;;;5061826;28;20253;-61
2023/10/27 06:20:39;;;;;;;1.73;0.90;;;9.70;99.90;;;;;;5064573;28;20212;-61
2023/10/27 06:23:05;;;;;;;0.70;0.70;;;9.70;99.90;;;;;;5063284;28;20828;-62
2023/10/27 06:25:31;;;;;;;0.70;0.70;;;9.70;99.90;;;;;;5061501;28;20206;-61
2023/10/27 06:27:56;;;;;;;1.00;0.90;;;9.70;99.90;;;;;;5068105;28;20170;-61
2023/10/27 06:30:23;;;;;;;1.47;0.80;;;9.70;99.90;;;;;;5062034;28;20215;-61
2023/10/27 06:32:48;;;;;;;1.83;0.80;;;9.60;99.90;;;;;;5060430;28;20171;-61
2023/10/27 06:35:14;;;;;;;1.00;0.90;;;9.70;99.90;;;;;;5062836;28;20510;-61
2023/10/27 06:37:40;;;;;;;3.47;0.83;;;9.70;99.90;;;;;;5061653;28;20321;-60
2023/10/27 06:40:06;;;;;;;0.90;0.90;;;9.70;99.90;;;;;;5061472;28;20190;-61
2023/10/27 06:42:32;;;;;;;0.90;0.90;;;9.70;99.90;;;;;;5068294;28;20171;-60
2023/10/27 06:44:59;;;;;;;0.90;0.90;;;9.70;99.90;;;;;;5066009;28;20409;-61
2023/10/27 06:47:25;;;;;;;0.90;0.90;;;9.60;99.90;;;;;;5065319;28;20417;-62
2023/10/27 06:49:51;;;;;;;0.93;0.90;;;9.70;99.90;;;;;;5064635;28;20428;-61
2023/10/27 06:52:16;;;;;;;1.53;0.80;;;9.70;99.90;;;;;;5066873;28;20243;-61
2023/10/27 06:54:42;;;;;;;1.17;0.93;;;9.70;99.90;;;;;;5064443;28;20186;-62
2023/10/27 06:57:08;;;;;;;1.20;1.10;;;9.70;99.90;;;;;;5063022;28;20209;-61
2023/10/27 06:59:33;;;;;;;1.10;1.00;;;9.70;99.90;;;;;;5060456;28;20175;-61
2023/10/27 07:01:59;;;;;;;1.90;1.10;;;9.70;99.90;;;;;;5061842;28;20205;-61
2023/10/27 07:04:25;;;;;;;0.90;0.90;;;9.80;99.90;;;;;;5066656;28;20767;-61
2023/10/27 07:06:50;;;;;;;1.23;0.97;;;9.80;99.90;;;;;;5064899;28;20197;-61
2023/10/27 07:09:16;;;;;;;1.20;0.90;;;9.80;99.90;;;;;;5061059;28;20167;-61
2023/10/27 07:11:42;;;;;;;2.37;1.00;;;9.80;99.90;;;;;;5060363;28;20209;-61
2023/10/27 07:14:10;;;;;;;3.97;1.30;;;9.80;99.90;;;;;;5062399;28;20166;-60
2023/10/27 07:16:36;;;;;;;3.30;1.20;;;9.80;99.90;;;;;;5064081;28;20428;-61
2023/10/27 07:19:02;;;;;;;0.90;0.90;;;9.70;99.90;;;;;;5063846;28;20431;-60
2023/10/27 07:21:27;;;;;;;1.37;1.27;;;9.70;99.90;;;;;;5064153;28;20691;-60
2023/10/27 07:23:53;;;;;;;4.10;1.20;;;9.70;99.90;;;;;;5066728;28;20417;-61
2023/10/27 07:26:19;;;;;;;3.17;1.10;;;9.70;99.90;;;;;;5058818;28;20253;-60
2023/10/27 07:28:44;;;;;;;1.93;1.10;;;9.70;99.90;;;;;;5057784;28;20205;-62
2023/10/27 07:31:10;;;;;;;2.03;1.17;;;9.80;99.90;;;;;;5059502;28;20285;-60
2023/10/27 07:33:38;;;;;;;6.97;1.37;;;9.80;99.90;;;;;;5057555;28;20179;-61
2023/10/27 07:36:06;;;;;;;1.80;1.30;;;9.80;99.90;;;;;;5060376;28;20177;-60
2023/10/27 07:38:32;;;;;;;3.70;1.67;;;9.90;99.90;;;;;;5062289;28;20666;-61
2023/10/27 07:40:59;;;;;;;4.70;1.27;;;9.90;99.90;;;;;;5056580;28;20467;-61
2023/10/27 07:43:25;;;;;;;6.37;1.70;;;9.90;99.90;;;;;;5051415;28;20515;-61
2023/10/27 07:45:51;;;;;;;6.27;1.30;;;9.90;99.90;;;;;;5061905;28;20432;-60
2023/10/27 07:48:16;;;;;;;2.00;1.73;;;9.80;99.90;;;;;;5065834;28;20198;-60
2023/10/27 07:50:42;;;;;;;4.80;1.40;;;9.80;99.90;;;;;;5066846;28;20556;-61
2023/10/27 07:53:08;;;;;;;2.93;1.20;;;9.80;99.90;;;;;;5069387;28;20291;-61
2023/10/27 07:55:35;;;;;;;4.73;1.40;;;9.80;99.90;;;;;;5067822;28;20183;-61
2023/10/27 07:58:00;;;;;;;1.60;1.10;;;9.80;99.90;;;;;;5058861;28;20413;-60
2023/10/27 08:00:26;;;;;;;3.03;1.10;;;9.80;99.90;;;;;;5061105;28;20439;-61
2023/10/27 08:02:52;;;;;;;4.37;1.30;;;9.90;99.90;;;;;;5063161;28;20261;-62
2023/10/27 08:05:18;;;;;;;9.10;1.53;;;9.90;99.90;;;;;;5066653;28;20181;-59
2023/10/27 08:07:44;;;;;;;3.70;1.30;;;10.00;99.90;;;;;;5064649;28;20175;-61
2023/10/27 08:10:10;;;;;;;4.57;1.30;;;10.00;99.90;;;;;;5057596;28;20485;-61
2023/10/27 08:12:37;;;;;;;1.53;1.10;;;10.00;99.90;;;;;;5063308;28;20244;-61
2023/10/27 08:15:06;;;;;;;6.10;1.40;;;10.10;99.90;;;;;;5061633;28;20434;-60
2023/10/27 08:17:36;;;;;;;2.93;1.40;;;10.10;99.90;;;;;;5066524;28;20883;-61
2023/10/27 08:20:02;;;;;;;10.00;1.33;;;10.20;99.90;;;;;;5063465;28;20787;-60
2023/10/27 08:22:27;;;;;;;3.60;1.30;;;10.30;99.90;;;;;;5067736;28;20511;-61
2023/10/27 08:24:53;;;;;;;1.27;1.00;;;10.30;99.90;;;;;;5057904;28;20519;-61
2023/10/27 08:27:19;;;;;;;1.33;1.10;;;10.40;99.90;;;;;;5057974;28;20682;-61
2023/10/27 08:29:45;;;;;;;6.73;1.00;;;10.40;99.90;;;;;;5068191;28;20188;-61
2023/10/27 08:32:11;;;;;;;2.43;1.20;;;10.50;99.90;;;;;;5065984;28;20194;-59
2023/10/27 08:34:37;;;;;;;2.27;1.13;;;10.50;99.90;;;;;;5066922;28;20167;-61
2023/10/27 08:37:03;;;;;;;3.27;1.27;;;10.50;99.90;;;;;;5060739;28;21119;-59
2023/10/27 08:39:32;;;;;;;2.13;1.17;;;10.50;99.90;;;;;;5068242;28;20190;-60
2023/10/27 08:41:58;;;;;;;1.97;1.10;;;10.60;99.90;;;;;;5062506;28;20256;-61
2023/10/27 08:44:25;;;;;;;1.57;1.00;;;10.60;99.90;;;;;;5064489;28;20931;-60
2023/10/27 08:46:51;;;;;;;2.47;1.23;;;10.50;99.90;;;;;;5063161;28;20467;-59
2023/10/27 08:49:17;;;;;;;3.33;1.20;;;10.50;99.90;;;;;;5067042;28;21214;-59
2023/10/27 08:51:43;;;;;;;1.60;1.10;;;10.60;99.90;;;;;;5068198;28;20559;-60
2023/10/27 08:54:10;;;;;;;4.43;1.07;;;10.60;99.90;;;;;;5062863;28;20192;-60
2023/10/27 08:56:36;;;;;;;2.57;1.13;;;10.70;99.90;;;;;;5067177;28;20857;-60
2023/10/27 08:59:06;;;;;;;3.70;1.17;;;10.70;99.90;;;;;;5062268;28;20418;-60
2023/10/27 09:01:32;;;;;;;4.83;1.30;;;10.60;99.90;;;;;;5065358;28;20444;-59
2023/10/27 09:04:09;;;;;;;2.07;1.17;;;10.60;99.90;;;;;;5061162;28;20436;-60
2023/10/27 09:06:35;;;;;;;2.67;1.40;;;10.70;99.90;;;;;;5062023;28;20908;-60
2023/10/27 09:09:02;;;;;;;3.47;1.30;;;10.70;99.90;;;;;;5062034;28;20433;-60
2023/10/27 09:11:27;;;;;;;1.53;1.20;;;10.80;99.90;;;;;;5069312;28;21107;-59
2023/10/27 09:13:53;;;;;;;3.47;1.20;;;10.80;99.90;;;;;;5063640;28;20424;-60
2023/10/27 09:16:26;;;;;;;4.00;1.30;;;10.80;99.90;;;;;;5064016;28;20163;-61
2023/10/27 09:18:52;;;;;;;3.57;1.63;;;10.80;99.90;;;;;;5066208;28;20175;-60
2023/10/27 09:21:32;;;;;;;1.97;0.90;;;10.80;99.90;;;;;;5068930;28;20522;-61
2023/10/27 09:23:58;;;;;;;1.23;1.10;;;10.90;99.90;;;;;;5062064;28;20456;-59
2023/10/27 09:26:28;;;;;;;4.10;1.30;;;11.00;99.90;;;;;;5062220;28;20432;-60
2023/10/27 09:29:03;;;;;;;1.70;1.20;;;11.10;99.90;;;;;;5065695;28;20217;-61
2023/10/27 09:31:33;;;;;;;6.50;1.40;;;11.30;99.90;;;;;;5062730;28;21027;-61
2023/10/27 09:34:25;;;;;;;2.93;1.30;;;11.40;99.90;;;;;;5061321;28;20429;-60
2023/10/27 09:36:56;;;;;;;5.23;1.30;;;11.60;99.90;;;;;;5062483;28;20923;-60
2023/10/27 09:39:23;;;;;;;1.33;1.10;;;11.80;99.90;;;;;;5061317;28;20471;-60
2023/10/27 09:41:59;;;;;;;2.93;1.37;;;11.90;99.90;;;;;;5056011;28;20565;-60
2023/10/27 09:45:07;;;;;;;3.90;1.50;;;12.10;99.90;;;;;;5065718;28;20408;-60
2023/10/27 09:47:41;;;;;;;3.30;1.40;;;12.20;99.90;;;;;;5061722;28;20436;-59
2023/10/27 09:50:10;;;;;;;3.30;1.70;;;12.30;99.90;;;;;;5060811;28;20489;-61
2023/10/27 09:52:40;;;;;;;3.27;1.20;;;12.30;99.90;;;;;;5067483;28;20906;-60
2023/10/27 09:55:07;;;;;;;2.47;1.20;;;12.40;99.90;;;;;;5066647;28;20442;-60
2023/10/27 09:57:33;;;;;;;5.00;1.30;;;12.50;99.90;;;;;;5067725;28;20447;-60
2023/10/27 10:00:00;;;;;;;4.10;1.30;;;12.70;99.90;;;;;;5059395;28;20448;-61
2023/10/27 10:02:29;;;;;;;5.93;1.57;;;12.70;99.90;;;;;;5068643;28;20251;-59
2023/10/27 10:04:59;;;;;;;4.23;1.37;;;12.80;99.90;;;;;;5067861;28;20417;-60
2023/10/27 10:07:40;;;;;;;2.73;1.67;;;12.80;99.90;;;;;;5060690;28;20540;-60
2023/10/27 10:10:32;;;;;;;4.67;1.30;;;12.70;99.90;;;;;;5064498;28;20478;-60
2023/10/27 10:13:04;;;;;;;3.60;1.43;;;12.50;99.90;;;;;;5058051;28;20420;-60
2023/10/27 10:15:34;;;;;;;6.30;1.47;;;12.30;99.90;;;;;;5055538;28;20405;-61
2023/10/27 10:18:00;;;;;;;5.03;1.60;;;12.20;99.90;;;;;;5062544;28;20951;-60
2023/10/27 10:20:56;;;;;;;2.10;1.10;;;12.00;99.90;;;;;;5066875;28;20452;-60
2023/10/27 10:23:35;;;;;;;1.60;1.30;;;11.90;99.90;;;;;;5064489;28;20504;-62
2023/10/27 10:26:00;;;;;;;5.27;1.47;;;11.80;99.90;;;;;;5054513;28;20455;-61
2023/10/27 10:28:29;;;;;;;1.40;1.00;;;11.80;99.90;;;;;;5065201;28;20425;-59
2023/10/27 10:31:22;;;;;;;1.30;1.10;;;11.80;99.90;;;;;;5061264;28;20206;-61
2023/10/27 10:33:49;;;;;;;1.37;1.27;;;11.90;99.90;;;;;;5062493;28;20452;-59
2023/10/27 10:36:18;;;;;;;1.67;1.13;;;11.90;99.90;;;;;;5065477;28;20429;-61
2023/10/27 10:38:55;;;;;;;2.23;1.27;;;11.90;99.90;;;;;;5054615;28;20471;-61
2023/10/27 10:41:40;;;;;;;1.77;1.50;;;11.80;99.90;;;;;;5055024;28;20456;-61
2023/10/27 10:44:16;;;;;;;4.07;2.00;;;11.80;99.90;;;;;;5062243;28;20768;-61
2023/10/27 10:46:43;;;;;;;2.30;1.37;;;11.70;99.90;;;;;;5056577;28;20419;-61
2023/10/27 10:49:21;;;;;;;2.10;1.07;;;11.70;99.90;;;;;;5061209;28;20425;-61
2023/10/27 10:51:57;;;;;;;2.00;1.00;;;11.70;99.90;;;;;;5062390;28;20463;-61
2023/10/27 10:54:30;;;;;;;3.43;1.10;;;11.70;99.90;;;;;;5066606;28;20467;-61
2023/10/27 10:57:08;;;;;;;1.30;1.20;;;11.90;99.90;;;;;;5064741;28;20500;-62
2023/10/27 10:59:35;;;;;;;1.70;1.10;;;12.10;99.90;;;;;;5063110;28;20428;-61
2023/10/27 11:02:01;;;;;;;2.33;1.10;;;12.10;99.90;;;;;;5057616;28;20448;-60
2023/10/27 11:04:34;;;;;;;4.40;2.50;;;12.00;99.90;;;;;;5060821;28;20429;-61
2023/10/27 11:07:03;;;;;;;3.33;1.20;;;11.90;99.90;;;;;;5060328;28;20189;-61
2023/10/27 11:09:31;;;;;;;5.00;1.10;;;11.80;99.90;;;;;;5054763;28;20509;-59
2023/10/27 11:11:57;;;;;;;2.87;1.23;;;11.70;99.90;;;;;;5060677;28;20457;-61
2023/10/27 11:14:23;;;;;;;2.63;1.13;;;11.60;99.90;;;;;;5060609;28;20486;-60
2023/10/27 11:17:00;;;;;;;1.70;1.10;;;11.50;99.90;;;;;;5063483;28;20424;-60
2023/10/27 11:19:25;;;;;;;2.23;1.40;;;11.40;99.90;;;;;;5062912;28;20166;-61
2023/10/27 11:21:53;;;;;;;1.57;1.40;;;11.30;99.90;;;;;;5061493;28;20445;-59
2023/10/27 11:24:19;;;;;;;2.40;1.90;;;11.30;99.90;;;;;;5059506;28;20174;-61
2023/10/27 11:26:45;;;;;;;3.17;1.20;;;11.30;99.90;;;;;;5057147;28;20436;-61
2023/10/27 11:29:10;;;;;;;1.90;1.03;;;11.30;99.90;;;;;;5058291;28;20528;-61
2023/10/27 11:31:39;;;;;;;2.13;1.00;;;11.20;99.90;;;;;;5051961;28;20191;-62
2023/10/27 11:34:09;;;;;;;0.90;0.90;;;11.20;99.90;;;;;;5054727;28;20186;-61
2023/10/27 11:36:42;;;;;;;2.83;1.47;;;11.20;99.90;;;;;;5054074;28;20425;-60
2023/10/27 11:39:18;;;;;;;2.47;1.20;;;11.40;99.90;;;;;;5055133;28;20440;-61
2023/10/27 11:42:04;;;;;;;1.13;1.03;;;11.40;99.90;;;;;;5056329;28;20539;-61
2023/10/27 11:44:31;;;;;;;1.10;1.10;;;11.50;99.90;;;;;;5059933;28;20515;-61
2023/10/27 11:46:58;;;;;;;2.90;1.20;;;11.60;99.90;;;;;;5055818;28;20433;-60
2023/10/27 11:49:25;;;;;;;0.97;0.90;;;11.60;99.90;;;;;;5056492;28;20434;-61
2023/10/27 11:51:53;;;;;;;0.90;0.90;;;11.60;99.90;;;;;;5055215;28;20484;-61
2023/10/27 11:54:19;;;;;;;2.20;1.10;;;11.50;99.90;;;;;;5055806;28;20428;-60
2023/10/27 11:56:46;;;;;;;4.43;1.10;;;11.50;99.90;;;;;;5057666;28;20441;-60
2023/10/27 11:59:12;;;;;;;1.30;1.20;;;11.50;99.90;;;;;;5051402;28;20440;-60
2023/10/27 12:01:37;;;;;;;1.83;1.20;;;11.50;99.90;;;;;;5055203;28;20820;-59
2023/10/27 12:04:07;;;;;;;2.00;1.10;;;11.50;99.90;;;;;;5052457;28;21209;-60
2023/10/27 12:06:35;;;;;;;2.97;1.20;;;11.40;99.90;;;;;;5056416;28;20205;-60
2023/10/27 12:09:01;;;;;;;4.13;1.20;;;11.40;99.90;;;;;;5052210;28;20444;-60
2023/10/27 12:11:29;;;;;;;1.07;1.07;;;11.50;99.90;;;;;;5051847;28;20821;-61
2023/10/27 12:13:55;;;;;;;4.10;1.27;;;11.70;99.90;;;;;;5056930;28;20186;-63
2023/10/27 12:16:22;;;;;;;1.23;0.97;;;11.90;99.90;;;;;;5054660;28;20429;-61
2023/10/27 12:18:49;;;;;;;1.77;1.37;;;12.00;99.90;;;;;;5055787;28;20443;-59
2023/10/27 12:21:14;;;;;;;2.30;0.90;;;12.20;99.90;;;;;;5053835;28;21115;-61
2023/10/27 12:23:40;;;;;;;1.63;1.10;;;12.30;99.90;;;;;;5056622;28;20528;-63
2023/10/27 12:26:07;;;;;;;2.20;1.30;;;12.40;99.90;;;;;;5052607;28;20183;-61
2023/10/27 12:28:34;;;;;;;1.43;1.17;;;12.50;99.90;;;;;;5053655;28;21051;-61
2023/10/27 12:31:00;;;;;;;1.50;1.10;;;12.40;99.90;;;;;;5057323;28;20471;-60
2023/10/27 12:33:26;;;;;;;2.07;1.10;;;12.30;99.90;;;;;;5063669;28;20427;-60
2023/10/27 12:35:51;;;;;;;3.13;1.10;;;12.20;99.90;;;;;;5059866;28;20837;-60
2023/10/27 12:38:20;;;;;;;1.63;1.07;;;12.10;99.90;;;;;;5063462;28;20439;-60
2023/10/27 12:40:49;;;;;;;3.40;1.40;;;12.10;99.90;;;;;;5055768;28;20198;-61
2023/10/27 12:43:15;;;;;;;1.10;1.00;;;12.00;99.90;;;;;;5065458;28;20416;-61
2023/10/27 12:45:41;;;;;;;1.20;1.07;;;12.00;99.90;;;;;;5065116;28;20954;-62
2023/10/27 12:48:08;;;;;;;0.97;0.97;;;12.10;99.90;;;;;;5059020;28;20628;-62
2023/10/27 12:50:35;;;;;;;5.70;1.20;;;12.10;99.90;;;;;;5056213;28;20535;-61
2023/10/27 12:53:01;;;;;;;2.73;1.23;;;12.20;99.90;;;;;;5064240;28;20435;-60